CheckWX is a tool to help pilots better visualize weather data.  It is not intended as a substitute for an official pre-flight weather briefing.

17:38:54 UTC

KCSV TAF
Crossville Memorial-Whitson Field Airport
Crossville, Tennessee, USA
KCSV 201120Z 2012/2112 17010KT P6SM OVC004 FM201400 19008KT 4SM SHRA BR OVC007 FM210300 22006KT 2SM -DZ OVC004

Feb-20@
12:00 UTC

Feb-20 @ 12:00 UTC

Feb-20@
14:00 UTC

Feb-20 @ 14:00 UTC

KCSV 201120Z 2012/2112 17010KT P6SM OVC004

Expired

Wind
  • 170° at 10 KTS
Visibility
10,000+ meters
Cloud Levels
  • Overcast at 400' AGL

Feb-20@
14:00 UTC

Feb-20 @ 14:00 UTC

Feb-21@
03:00 UTC

Feb-21 @ 03:00 UTC

FM201400 19008KT 4SM SHRA BR OVC007

From

FromStandard forecast or significant change

Wind
  • 190° at 8 KTS
Visibility
6,437 meters
Conditions
Rain, Mist
Cloud Levels
  • Overcast at 700' AGL

Feb-21@
03:00 UTC

Feb-21 @ 03:00 UTC

Feb-21@
12:00 UTC

Feb-21 @ 12:00 UTC

FM210300 22006KT 2SM -DZ OVC004

From

FromStandard forecast or significant change

Wind
  • 220° at 6 KTS
Visibility
3,219 meters
Conditions
Light Drizzle
Cloud Levels
  • Overcast at 400' AGL